createdAt,value
2023-02-22T00:01:50.779Z,8.25
2023-02-22T00:03:55.479Z,7.55
2023-02-22T00:05:59.838Z,7.82
2023-02-22T00:08:02.371Z,8.27
2023-02-22T00:10:09.117Z,8.55
2023-02-22T00:12:11.768Z,9.45
2023-02-22T00:14:14.338Z,8.38
2023-02-22T00:16:18.521Z,8.25
2023-02-22T00:18:21.141Z,9.32
2023-02-22T00:20:25.060Z,8.35
2023-02-22T00:22:27.672Z,8.02
2023-02-22T00:24:31.367Z,8.07
2023-02-22T00:26:34.683Z,7.80
2023-02-22T00:28:37.955Z,8.27
2023-02-22T00:30:43.554Z,7.88
2023-02-22T00:32:47.005Z,7.95
2023-02-22T00:34:53.059Z,7.38
2023-02-22T00:36:57.006Z,8.00
2023-02-22T00:38:59.536Z,8.23
2023-02-22T00:41:02.142Z,7.30
2023-02-22T00:43:07.017Z,7.60
2023-02-22T00:45:10.165Z,7.65
2023-02-22T00:47:12.733Z,8.20
2023-02-22T00:49:15.296Z,7.75
2023-02-22T00:51:18.239Z,8.70
2023-02-22T00:53:23.351Z,8.75
2023-02-22T00:55:27.585Z,8.50
2023-02-22T00:57:30.160Z,8.73
2023-02-22T00:59:32.732Z,8.30
2023-02-22T01:01:35.408Z,8.63
2023-02-22T01:03:41.245Z,8.38
2023-02-22T01:05:44.523Z,8.27
2023-02-22T01:07:47.778Z,8.68
2023-02-22T01:09:51.682Z,8.75
2023-02-22T01:11:56.215Z,7.78
2023-02-22T01:13:59.929Z,8.60
2023-02-22T01:16:03.192Z,8.27
2023-02-22T01:18:06.522Z,7.53
2023-02-22T01:20:12.692Z,8.52
2023-02-22T01:22:15.269Z,8.32
2023-02-22T01:24:18.979Z,8.15
2023-02-22T01:26:22.948Z,8.27
2023-02-22T01:28:25.895Z,8.32
2023-02-22T01:30:31.076Z,8.20
2023-02-22T01:32:36.980Z,8.30
2023-02-22T01:34:40.079Z,8.50
2023-02-22T01:36:42.876Z,7.50
2023-02-22T01:38:46.040Z,8.10
2023-02-22T01:40:50.631Z,8.18
2023-02-22T01:42:57.722Z,9.15
2023-02-22T01:45:52.120Z,9.85
2023-02-22T01:47:55.531Z,10.20
2023-02-22T01:49:58.178Z,10.63
2023-02-22T01:52:03.748Z,9.50
2023-02-22T01:54:13.583Z,9.07
2023-02-22T01:56:17.033Z,7.85
2023-02-22T01:58:23.019Z,8.23
2023-02-22T02:00:27.659Z,8.82
2023-02-22T02:02:30.413Z,8.50
2023-02-22T02:04:35.252Z,8.43
2023-02-22T02:06:38.638Z,8.52
2023-02-22T02:08:49.882Z,8.32
2023-02-22T02:10:54.474Z,9.05
2023-02-22T02:12:59.260Z,8.55
2023-02-22T02:15:18.823Z,8.02
2023-02-22T02:17:23.937Z,7.68
2023-02-22T02:19:36.866Z,7.85
2023-02-22T02:22:14.151Z,7.72
2023-02-22T02:25:08.642Z,7.55
2023-02-22T02:27:18.136Z,7.85
2023-02-22T02:29:48.368Z,6.57
2023-02-22T02:32:21.112Z,7.28
2023-02-22T02:34:31.866Z,7.45
2023-02-22T02:36:44.648Z,7.72
2023-02-22T02:38:51.749Z,7.47
2023-02-22T02:41:04.428Z,7.45
2023-02-22T02:43:13.346Z,8.07
2023-02-22T02:45:20.184Z,7.47
2023-02-22T02:47:28.852Z,7.65
2023-02-22T02:49:36.560Z,6.88
2023-02-22T02:51:42.811Z,6.75
2023-02-22T02:53:51.215Z,6.63
2023-02-22T02:55:53.849Z,6.85
2023-02-22T02:57:56.735Z,6.57
2023-02-22T02:59:59.349Z,6.88
2023-02-22T03:02:15.323Z,6.65
2023-02-22T03:04:28.684Z,6.32
2023-02-22T03:06:51.074Z,7.05
2023-02-22T03:09:02.384Z,6.80
2023-02-22T03:11:15.128Z,6.55
2023-02-22T03:13:26.490Z,6.80
2023-02-22T03:15:43.582Z,6.73
2023-02-22T03:17:54.173Z,6.03
2023-02-22T03:20:02.721Z,6.18
2023-02-22T03:22:14.050Z,7.25
2023-02-22T03:24:23.040Z,7.13
2023-02-22T03:26:32.752Z,6.82
2023-02-22T03:28:41.086Z,6.50
2023-02-22T03:30:49.216Z,7.20
2023-02-22T03:32:57.070Z,6.63
2023-02-22T03:35:06.691Z,7.43
2023-02-22T03:37:15.877Z,6.15
2023-02-22T03:39:20.412Z,6.20
2023-02-22T03:41:26.155Z,6.80
2023-02-22T03:43:33.819Z,7.05
2023-02-22T03:45:38.302Z,7.70
2023-02-22T03:47:44.502Z,7.15
2023-02-22T03:49:53.083Z,8.13
2023-02-22T03:51:57.357Z,7.50
2023-02-22T03:54:00.416Z,8.50
2023-02-22T03:56:07.189Z,8.27
2023-02-22T03:58:13.178Z,7.68
2023-02-22T04:00:21.430Z,8.40
2023-02-22T04:02:24.036Z,8.90
2023-02-22T04:04:27.368Z,7.45
2023-02-22T04:06:30.518Z,7.75
2023-02-22T04:08:35.191Z,7.45
2023-02-22T04:10:38.474Z,7.97
2023-02-22T04:12:41.067Z,7.38
2023-02-22T04:14:43.643Z,8.20
2023-02-22T04:16:46.247Z,7.72
2023-02-22T04:18:48.817Z,7.53
2023-02-22T04:20:51.677Z,7.47
2023-02-22T04:22:55.300Z,8.10
2023-02-22T04:24:59.263Z,7.93
2023-02-22T04:27:01.846Z,7.53
2023-02-22T04:29:04.761Z,7.13
2023-02-22T04:31:07.443Z,7.40
2023-02-22T04:33:10.651Z,7.18
2023-02-22T04:35:13.605Z,6.72
2023-02-22T04:37:16.276Z,7.22
2023-02-22T04:39:19.014Z,6.78
2023-02-22T04:41:25.239Z,8.52
2023-02-22T04:43:28.167Z,7.20
2023-02-22T04:45:30.798Z,7.43
2023-02-22T04:47:33.360Z,7.55
2023-02-22T04:49:38.672Z,6.90
2023-02-22T04:51:42.475Z,6.90
2023-02-22T04:53:45.151Z,6.70
2023-02-22T04:55:47.729Z,6.50
2023-02-22T04:57:51.829Z,7.30
2023-02-22T04:59:54.608Z,6.93
2023-02-22T05:01:57.230Z,7.43
2023-02-22T05:03:59.809Z,7.88
2023-02-22T05:06:02.409Z,7.30
2023-02-22T05:08:08.048Z,6.53
2023-02-22T05:10:11.266Z,6.30
2023-02-22T05:12:13.941Z,6.47
2023-02-22T05:14:18.007Z,6.90
2023-02-22T05:16:20.684Z,7.55
2023-02-22T05:18:23.396Z,6.90
2023-02-22T05:20:30.534Z,6.45
2023-02-22T05:22:33.192Z,6.40
2023-02-22T05:24:35.809Z,6.18
2023-02-22T05:26:38.368Z,6.25
2023-02-22T05:28:41.034Z,6.63
2023-02-22T05:30:45.336Z,6.63
2023-02-22T05:32:47.983Z,6.32
2023-02-22T05:34:50.596Z,6.53
2023-02-22T05:36:53.202Z,5.82
2023-02-22T05:38:55.938Z,5.90
2023-02-22T05:40:58.601Z,5.55
2023-02-22T05:43:02.173Z,6.30
2023-02-22T05:45:05.159Z,6.80
2023-02-22T05:47:09.079Z,6.80
2023-02-22T05:49:11.698Z,6.93
2023-02-22T05:51:14.496Z,5.93
2023-02-22T05:53:17.152Z,6.05
2023-02-22T05:55:22.253Z,6.40
2023-02-22T05:57:24.848Z,6.60
2023-02-22T05:59:27.959Z,6.43
2023-02-22T06:01:30.543Z,6.50
2023-02-22T06:03:34.443Z,7.43
2023-02-22T06:05:37.839Z,7.60
2023-02-22T06:07:40.431Z,6.35
2023-02-22T06:09:43.133Z,7.05
2023-02-22T06:11:45.739Z,6.80
2023-02-22T06:13:52.450Z,6.70
2023-02-22T06:15:55.072Z,7.35
2023-02-22T06:17:58.787Z,6.40
2023-02-22T06:20:02.865Z,7.85
2023-02-22T06:22:05.449Z,6.93
2023-02-22T06:24:08.277Z,6.53
2023-02-22T06:26:10.885Z,7.28
2023-02-22T06:28:13.457Z,6.80
2023-02-22T06:30:18.649Z,7.32
2023-02-22T06:32:21.269Z,7.25
2023-02-22T06:34:23.845Z,7.43
2023-02-22T06:36:27.823Z,7.65
2023-02-22T06:38:30.418Z,7.55
2023-02-22T06:40:33.075Z,8.15
2023-02-22T06:42:35.648Z,7.35
2023-02-22T06:44:38.188Z,7.18
2023-02-22T06:46:40.794Z,6.72
2023-02-22T06:48:43.372Z,7.03
2023-02-22T06:50:45.958Z,7.15
2023-02-22T06:52:49.896Z,7.47
2023-02-22T06:54:52.823Z,7.38
2023-02-22T06:56:55.394Z,7.93
2023-02-22T06:58:58.074Z,7.78
2023-02-22T07:01:02.806Z,6.88
2023-02-22T07:03:05.796Z,7.13
2023-02-22T07:05:08.887Z,7.68
2023-02-22T07:07:11.510Z,8.02
2023-02-22T07:09:16.430Z,7.28
2023-02-22T07:11:19.397Z,7.55
2023-02-22T07:13:22.035Z,7.78
2023-02-22T07:15:26.477Z,7.40
2023-02-22T07:17:29.022Z,7.20
2023-02-22T07:19:31.614Z,8.30
2023-02-22T07:21:34.200Z,7.45
2023-02-22T07:23:36.785Z,7.80
2023-02-22T07:25:40.685Z,8.25
2023-02-22T07:27:43.628Z,8.50
2023-02-22T07:29:46.773Z,8.48
2023-02-22T07:31:49.622Z,8.40
2023-02-22T07:33:52.464Z,7.65
2023-02-22T07:35:55.044Z,7.93
2023-02-22T07:37:57.991Z,7.47
2023-02-22T07:40:00.592Z,7.53
2023-02-22T07:42:04.840Z,7.30
2023-02-22T07:44:07.449Z,7.95
2023-02-22T07:46:10.075Z,8.32
2023-02-22T07:48:14.338Z,8.65
2023-02-22T07:50:20.330Z,8.20
2023-02-22T07:52:22.908Z,8.52
2023-02-22T07:54:25.478Z,8.10
2023-02-22T07:56:28.101Z,8.25
2023-02-22T07:58:33.049Z,8.13
2023-02-22T08:00:37.533Z,8.93
2023-02-22T08:02:40.179Z,8.82
2023-02-22T08:04:42.776Z,7.63
2023-02-22T08:06:46.286Z,8.85
2023-02-22T08:08:48.844Z,8.30
2023-02-22T08:10:52.850Z,8.02
2023-02-22T08:12:56.180Z,8.20
2023-02-22T08:15:00.357Z,8.95
2023-02-22T08:17:02.978Z,8.50
2023-02-22T08:19:05.634Z,8.18
2023-02-22T08:21:08.278Z,8.75
2023-02-22T08:23:12.355Z,8.52
2023-02-22T08:25:16.535Z,7.75
2023-02-22T08:27:23.355Z,8.02
2023-02-22T08:29:33.315Z,8.23
2023-02-22T08:31:37.372Z,8.48
2023-02-22T08:33:39.963Z,7.90
2023-02-22T08:35:42.867Z,7.63
2023-02-22T08:37:46.533Z,7.90
2023-02-22T08:39:49.207Z,7.22
2023-02-22T08:41:51.820Z,7.78
2023-02-22T08:43:54.544Z,7.93
2023-02-22T08:45:57.920Z,7.10
2023-02-22T08:48:01.951Z,7.15
2023-02-22T08:50:05.053Z,7.40
2023-02-22T08:52:07.633Z,6.70
2023-02-22T08:54:10.268Z,7.72
2023-02-22T08:56:12.919Z,6.93
2023-02-22T08:58:15.640Z,6.45
2023-02-22T09:00:19.516Z,7.65
2023-02-22T09:02:23.233Z,6.82
2023-02-22T09:04:27.392Z,6.72
2023-02-22T09:06:30.593Z,7.10
2023-02-22T09:08:33.139Z,6.72
2023-02-22T09:10:36.535Z,7.63
2023-02-22T09:12:39.205Z,7.55
2023-02-22T09:14:42.994Z,6.95
2023-02-22T09:16:46.265Z,7.38
2023-02-22T09:18:48.884Z,7.00
2023-02-22T09:20:53.348Z,6.60
2023-02-22T09:22:56.279Z,7.22
2023-02-22T09:25:02.643Z,6.50
2023-02-22T09:27:12.138Z,6.82
2023-02-22T09:29:15.040Z,7.28
2023-02-22T09:31:18.044Z,6.28
2023-02-22T09:33:21.991Z,6.60
2023-02-22T09:35:27.020Z,6.70
2023-02-22T09:37:31.280Z,7.15
2023-02-22T09:39:37.585Z,6.70
2023-02-22T09:41:50.035Z,6.60
2023-02-22T09:44:02.216Z,6.70
2023-02-22T09:46:20.220Z,7.25
2023-02-22T09:48:25.351Z,6.70
2023-02-22T09:50:35.605Z,7.40
2023-02-22T09:52:44.840Z,6.30
2023-02-22T09:54:52.070Z,6.45
2023-02-22T09:56:58.973Z,6.72
2023-02-22T09:59:04.663Z,6.90
2023-02-22T10:01:20.590Z,6.63
2023-02-22T10:03:29.190Z,7.20
2023-02-22T10:05:37.626Z,7.25
2023-02-22T10:07:48.085Z,6.35
2023-02-22T10:09:51.262Z,6.93
2023-02-22T10:11:59.986Z,9.05
2023-02-22T10:14:15.546Z,6.95
2023-02-22T10:16:24.931Z,7.45
2023-02-22T10:19:00.185Z,7.90
2023-02-22T10:21:10.743Z,9.60
2023-02-22T10:23:25.981Z,10.25
2023-02-22T10:25:34.971Z,11.57
2023-02-22T10:27:41.210Z,10.27
2023-02-22T10:29:47.972Z,8.75
2023-02-22T10:31:55.586Z,6.80
2023-02-22T10:34:01.601Z,7.93
2023-02-22T10:36:05.032Z,7.53
2023-02-22T10:38:17.610Z,7.15
2023-02-22T10:40:23.029Z,8.02
2023-02-22T10:42:28.935Z,8.15
2023-02-22T10:44:31.504Z,7.32
2023-02-22T10:46:35.275Z,7.40
2023-02-22T10:48:41.185Z,6.97
2023-02-22T10:50:45.964Z,6.32
2023-02-22T10:52:48.998Z,7.28
2023-02-22T10:55:01.027Z,7.38
2023-02-22T10:57:09.410Z,6.20
2023-02-22T10:59:12.600Z,6.28
2023-02-22T11:01:27.596Z,6.85
2023-02-22T11:03:30.698Z,6.95
2023-02-22T11:05:37.198Z,7.28
2023-02-22T11:07:42.626Z,7.90
2023-02-22T11:09:53.276Z,5.95
2023-02-22T11:12:11.600Z,6.90
2023-02-22T11:14:25.499Z,6.38
2023-02-22T11:16:34.192Z,6.22
2023-02-22T11:18:39.991Z,5.90
2023-02-22T11:20:42.615Z,5.70
2023-02-22T11:22:48.228Z,6.00
2023-02-22T11:24:58.056Z,6.05
2023-02-22T11:27:03.556Z,6.55
2023-02-22T11:29:18.839Z,6.55
2023-02-22T11:31:23.831Z,6.28
2023-02-22T11:33:29.354Z,6.63
2023-02-22T11:35:37.026Z,5.78
2023-02-22T11:37:39.662Z,6.18
2023-02-22T11:39:43.855Z,6.18
2023-02-22T11:41:49.250Z,6.43
2023-02-22T11:43:54.346Z,6.25
2023-02-22T11:46:04.687Z,5.85
2023-02-22T11:48:09.154Z,6.40
2023-02-22T11:50:22.179Z,6.18
2023-02-22T11:52:31.099Z,6.45
2023-02-22T11:54:46.805Z,6.43
2023-02-22T11:56:51.416Z,6.82
2023-02-22T11:59:02.730Z,6.88
2023-02-22T12:01:17.445Z,6.78
2023-02-22T12:03:32.884Z,6.40
2023-02-22T12:06:00.649Z,7.53
2023-02-22T12:08:19.850Z,8.20
2023-02-22T12:10:35.040Z,8.52
2023-02-22T12:12:48.181Z,8.35
2023-02-22T12:15:00.962Z,7.68
2023-02-22T12:17:20.439Z,7.13
2023-02-22T12:19:30.425Z,6.72
2023-02-22T12:21:37.253Z,6.07
2023-02-22T12:23:45.767Z,7.40
2023-02-22T12:25:58.567Z,7.05
2023-02-22T12:28:23.670Z,6.28
2023-02-22T12:30:30.235Z,7.78
2023-02-22T12:32:41.699Z,6.78
2023-02-22T12:34:48.973Z,6.32
2023-02-22T12:36:56.627Z,5.93
2023-02-22T12:39:07.469Z,6.45
2023-02-22T12:41:18.410Z,6.97
2023-02-22T12:43:26.486Z,8.05
2023-02-22T12:45:36.872Z,6.28
2023-02-22T12:47:50.214Z,6.40
2023-02-22T12:49:58.371Z,6.70
2023-02-22T12:52:20.954Z,7.07
2023-02-22T12:54:37.840Z,7.60
2023-02-22T12:56:45.904Z,6.63
2023-02-22T12:58:54.966Z,7.60
2023-02-22T13:01:01.734Z,8.13
2023-02-22T13:03:17.986Z,7.38
2023-02-22T13:05:20.845Z,7.75
2023-02-22T13:07:39.242Z,7.35
2023-02-22T13:10:04.411Z,7.38
2023-02-22T13:12:17.430Z,8.10
2023-02-22T13:14:44.451Z,7.05
2023-02-22T13:16:55.279Z,7.43
2023-02-22T13:19:09.893Z,7.68
2023-02-22T13:21:19.951Z,6.78
2023-02-22T13:23:38.944Z,6.60
2023-02-22T13:25:49.939Z,6.47
2023-02-22T13:27:59.946Z,5.13
2023-02-22T13:30:03.885Z,6.13
2023-02-22T13:32:20.209Z,6.88
2023-02-22T13:34:44.848Z,6.57
2023-02-22T13:37:08.494Z,5.82
2023-02-22T13:39:40.953Z,6.40
2023-02-22T13:42:00.389Z,7.63
2023-02-22T13:44:19.766Z,7.10
2023-02-22T13:46:35.562Z,13.95
2023-02-22T13:49:06.502Z,7.00
2023-02-22T13:51:24.147Z,6.38
2023-02-22T13:53:32.868Z,7.20
2023-02-22T13:55:37.617Z,6.40
2023-02-22T13:57:48.134Z,6.35
2023-02-22T14:00:22.786Z,6.40
2023-02-22T14:02:55.288Z,7.20
2023-02-22T14:04:57.922Z,6.80
2023-02-22T14:07:02.962Z,7.28
2023-02-22T14:09:09.411Z,7.93
2023-02-22T14:11:48.620Z,8.27
2023-02-22T14:14:13.027Z,7.85
2023-02-22T14:16:24.550Z,7.65
2023-02-22T14:18:29.044Z,7.82
2023-02-22T14:20:35.207Z,8.13
2023-02-22T14:22:39.419Z,8.40
2023-02-22T14:24:45.302Z,8.68
2023-02-22T14:27:01.302Z,9.27
2023-02-22T14:29:16.997Z,8.57
2023-02-22T14:31:34.817Z,8.55
2023-02-22T14:33:59.577Z,8.27
2023-02-22T14:36:02.516Z,8.15
2023-02-22T14:38:15.644Z,8.63
2023-02-22T14:40:25.762Z,8.05
2023-02-22T14:42:32.952Z,8.88
2023-02-22T14:44:40.538Z,10.07
2023-02-22T14:46:50.101Z,9.40
2023-02-22T14:49:00.551Z,9.57
2023-02-22T14:51:20.261Z,10.15
2023-02-22T14:53:28.370Z,10.15
2023-02-22T14:55:34.482Z,9.00
2023-02-22T14:57:48.379Z,10.40
2023-02-22T15:00:11.881Z,9.50
2023-02-22T15:02:15.526Z,9.52
2023-02-22T15:04:19.776Z,10.77
2023-02-22T15:06:24.590Z,10.75
2023-02-22T15:08:29.187Z,10.15
2023-02-22T15:10:39.789Z,11.10
2023-02-22T15:12:42.419Z,10.45
2023-02-22T15:14:47.715Z,10.60
2023-02-22T15:16:52.993Z,11.25
2023-02-22T15:18:59.176Z,11.63
2023-02-22T15:21:07.175Z,11.80
2023-02-22T15:23:10.145Z,11.68
2023-02-22T15:25:14.658Z,12.65
2023-02-22T15:27:19.498Z,12.18
2023-02-22T15:29:24.646Z,12.13
2023-02-22T15:31:31.348Z,12.10
2023-02-22T15:33:38.096Z,12.13
2023-02-22T15:35:40.761Z,12.85
2023-02-22T15:37:44.668Z,12.32
2023-02-22T15:39:47.226Z,11.85
2023-02-22T15:42:02.242Z,12.63
2023-02-22T15:44:17.854Z,12.77
2023-02-22T15:46:25.238Z,11.68
2023-02-22T15:48:29.584Z,12.27
2023-02-22T15:50:34.033Z,13.57
2023-02-22T15:52:36.667Z,13.23
2023-02-22T15:54:46.601Z,14.48
2023-02-22T15:56:56.305Z,14.90
2023-02-22T15:59:03.724Z,12.50
2023-02-22T16:01:08.852Z,12.40
2023-02-22T16:03:14.321Z,12.65
2023-02-22T16:05:18.387Z,13.32
2023-02-22T16:07:21.319Z,12.70
2023-02-22T16:09:27.268Z,12.43
2023-02-22T16:11:33.399Z,12.57
2023-02-22T16:13:37.486Z,12.52
2023-02-22T16:15:40.267Z,13.95
2023-02-22T16:17:56.046Z,13.25
2023-02-22T16:20:35.413Z,14.30
2023-02-22T16:22:39.593Z,13.50
2023-02-22T16:24:42.420Z,12.65
2023-02-22T16:27:04.444Z,13.00
2023-02-22T16:31:12.442Z,13.02
2023-02-22T16:33:16.585Z,13.23
2023-02-22T16:35:19.482Z,13.30
2023-02-22T16:37:24.846Z,13.10
2023-02-22T16:39:32.101Z,12.27
2023-02-22T16:41:34.803Z,12.68
2023-02-22T16:43:37.828Z,12.98
2023-02-22T16:45:42.475Z,13.32
2023-02-22T16:47:45.571Z,13.60
2023-02-22T16:49:53.716Z,12.85
2023-02-22T16:52:01.107Z,12.38
2023-02-22T16:54:05.202Z,13.00
2023-02-22T16:56:11.646Z,13.63
2023-02-22T16:58:15.828Z,13.77
2023-02-22T17:00:31.034Z,14.07
2023-02-22T17:02:34.289Z,13.52
2023-02-22T17:04:36.899Z,13.18
2023-02-22T17:06:39.500Z,13.57
2023-02-22T17:08:42.676Z,13.38
2023-02-22T17:10:47.300Z,13.07
2023-02-22T17:12:54.121Z,13.50
2023-02-22T17:14:57.117Z,13.90
2023-02-22T17:17:00.160Z,14.50
2023-02-22T17:19:04.979Z,13.88
2023-02-22T17:21:10.544Z,11.88
2023-02-22T17:23:13.480Z,13.30
2023-02-22T17:25:22.432Z,12.98
2023-02-22T17:27:26.450Z,12.75
2023-02-22T17:29:29.852Z,13.85
2023-02-22T17:31:32.858Z,13.85
2023-02-22T17:33:37.608Z,13.57
2023-02-22T17:35:41.046Z,13.32
2023-02-22T17:37:45.760Z,14.10
2023-02-22T17:39:48.317Z,13.88
2023-02-22T17:41:57.479Z,14.60
2023-02-22T17:44:02.254Z,14.75
2023-02-22T17:46:08.047Z,13.02
2023-02-22T17:48:11.069Z,13.18
2023-02-22T17:50:15.378Z,13.45
2023-02-22T17:52:17.974Z,13.25
2023-02-22T17:54:20.597Z,14.10
2023-02-22T17:56:23.210Z,12.52
2023-02-22T17:58:30.885Z,13.65
2023-02-22T18:00:38.819Z,12.40
2023-02-22T18:02:42.205Z,12.40
2023-02-22T18:04:44.795Z,13.45
2023-02-22T18:06:47.557Z,12.40
2023-02-22T18:08:55.832Z,13.13
2023-02-22T18:11:02.034Z,13.27
2023-02-22T18:13:04.755Z,12.27
2023-02-22T18:15:10.784Z,13.13
2023-02-22T18:17:14.652Z,13.60
2023-02-22T18:19:20.408Z,13.32
2023-02-22T18:21:26.747Z,15.70
2023-02-22T18:23:32.250Z,17.85
2023-02-22T18:25:35.496Z,17.98
2023-02-22T18:27:38.392Z,18.10
2023-02-22T18:29:40.991Z,19.67
2023-02-22T18:31:45.360Z,18.33
2023-02-22T18:33:51.040Z,17.63
2023-02-22T18:35:53.614Z,18.42
2023-02-22T18:37:56.294Z,17.42
2023-02-22T18:39:59.584Z,17.60
2023-02-22T18:42:02.160Z,17.50
2023-02-22T18:44:06.431Z,16.67
2023-02-22T18:46:10.000Z,18.17
2023-02-22T18:48:12.582Z,16.75
2023-02-22T18:50:17.449Z,17.42
2023-02-22T18:52:20.087Z,17.92
2023-02-22T18:54:22.719Z,17.13
2023-02-22T18:56:29.654Z,17.00
2023-02-22T18:58:32.817Z,17.10
2023-02-22T19:00:36.271Z,17.63
2023-02-22T19:02:38.851Z,18.00
2023-02-22T19:04:44.040Z,18.02
2023-02-22T19:06:49.730Z,19.35
2023-02-22T19:08:52.460Z,17.27
2023-02-22T19:10:55.058Z,18.38
2023-02-22T19:12:57.650Z,18.70
2023-02-22T19:15:00.410Z,18.55
2023-02-22T19:17:03.190Z,18.40
2023-02-22T19:19:06.226Z,17.48
2023-02-22T19:21:09.528Z,18.45
2023-02-22T19:23:13.478Z,19.35
2023-02-22T19:25:16.174Z,18.73
2023-02-22T19:27:18.787Z,20.15
2023-02-22T19:29:23.472Z,20.27
2023-02-22T19:31:31.592Z,18.60
2023-02-22T19:33:34.301Z,20.15
2023-02-22T19:35:37.249Z,19.30
2023-02-22T19:37:39.843Z,20.23
2023-02-22T19:39:43.821Z,18.67
2023-02-22T19:41:46.911Z,20.58
2023-02-22T19:43:50.981Z,19.08
2023-02-22T19:45:53.570Z,19.83
2023-02-22T19:47:56.481Z,19.95
2023-02-22T19:50:00.267Z,19.20
2023-02-22T19:52:03.809Z,21.13
2023-02-22T19:54:08.417Z,19.27
2023-02-22T19:56:16.063Z,20.50
2023-02-22T19:58:18.669Z,21.60
2023-02-22T20:00:24.755Z,20.58
2023-02-22T20:02:27.545Z,20.25
2023-02-22T20:04:30.478Z,20.25
2023-02-22T20:06:35.720Z,20.38
2023-02-22T20:08:42.268Z,20.33
2023-02-22T20:10:46.457Z,21.52
2023-02-22T20:12:50.346Z,21.00
2023-02-22T20:14:52.898Z,20.65
2023-02-22T20:16:56.734Z,21.33
2023-02-22T20:19:00.119Z,22.48
2023-02-22T20:21:07.500Z,21.73
2023-02-22T20:23:10.215Z,21.08
2023-02-22T20:25:13.614Z,20.20
2023-02-22T20:27:20.114Z,20.83
2023-02-22T20:29:29.442Z,20.45
2023-02-22T20:31:33.087Z,20.50
2023-02-22T20:33:35.948Z,20.42
2023-02-22T20:35:38.614Z,21.27
2023-02-22T20:37:42.620Z,22.13
2023-02-22T20:39:45.194Z,22.55
2023-02-22T20:41:47.860Z,21.25
2023-02-22T20:43:51.180Z,21.60
2023-02-22T20:45:55.132Z,21.65
2023-02-22T20:47:57.759Z,21.27
2023-02-22T20:50:00.357Z,21.60
2023-02-22T20:52:03.007Z,21.40
2023-02-22T20:57:27.028Z,19.52
2023-02-22T20:59:30.298Z,20.63
2023-02-22T21:01:34.482Z,21.95
2023-02-22T21:03:37.213Z,20.67
2023-02-22T21:05:42.780Z,20.42
2023-02-22T21:07:45.307Z,21.67
2023-02-22T21:09:47.838Z,20.88
2023-02-22T21:11:50.599Z,20.67
2023-02-22T21:13:53.615Z,20.98
2023-02-22T21:15:56.176Z,20.15
2023-02-22T21:18:52.435Z,21.77
2023-02-22T21:20:56.326Z,21.60
2023-02-22T21:23:01.815Z,21.50
2023-02-22T21:25:04.679Z,21.65
2023-02-22T21:27:07.252Z,22.02
2023-02-22T21:29:10.716Z,21.15
2023-02-22T21:31:14.428Z,21.08
2023-02-22T21:33:17.338Z,21.95
2023-02-22T21:35:21.327Z,20.77
2023-02-22T21:37:25.201Z,20.75
2023-02-22T21:39:28.961Z,22.08
2023-02-22T21:41:32.180Z,21.92
2023-02-22T21:43:34.708Z,22.45
2023-02-22T21:45:38.346Z,22.20
2023-02-22T21:47:41.495Z,22.70
2023-02-22T21:49:44.400Z,23.30
2023-02-22T21:51:46.940Z,22.17
2023-02-22T21:53:52.981Z,21.63
2023-02-22T21:55:55.526Z,22.27
2023-02-22T21:57:58.079Z,23.58
2023-02-22T22:00:00.630Z,23.60
2023-02-22T22:02:03.709Z,23.33
2023-02-22T22:04:06.728Z,23.73
2023-02-22T22:06:10.880Z,22.95
2023-02-22T22:08:19.429Z,23.42
2023-02-22T22:10:27.601Z,24.60
2023-02-22T22:12:38.743Z,23.75
2023-02-22T22:14:41.865Z,21.95
2023-02-22T22:16:47.783Z,21.88
2023-02-22T22:18:50.352Z,22.77
2023-02-22T22:20:52.894Z,22.42
2023-02-22T22:22:55.432Z,21.90
2023-02-22T22:24:57.981Z,21.83
2023-02-22T22:27:03.727Z,24.35
2023-02-22T22:29:09.888Z,23.73
2023-02-22T22:31:18.038Z,23.15
2023-02-22T22:33:21.098Z,24.05
2023-02-22T22:35:23.623Z,23.38
2023-02-22T22:37:27.932Z,23.27
2023-02-22T22:39:30.762Z,23.17
2023-02-22T22:41:33.840Z,24.88
2023-02-22T22:43:38.441Z,23.27
2023-02-22T22:45:40.989Z,24.67
2023-02-22T22:47:45.898Z,25.13
2023-02-22T22:49:50.244Z,25.52
2023-02-22T22:51:53.419Z,24.73
2023-02-22T22:53:55.974Z,26.02
2023-02-22T22:56:04.281Z,23.90
2023-02-22T22:58:06.819Z,23.60
2023-02-22T23:00:37.432Z,22.35
2023-02-22T23:02:40.561Z,22.48
2023-02-22T23:04:45.146Z,22.10
2023-02-22T23:06:50.621Z,23.02
2023-02-22T23:09:00.005Z,23.17
2023-02-22T23:11:09.084Z,22.75
2023-02-22T23:13:15.576Z,22.58
2023-02-22T23:15:19.628Z,22.00
2023-02-22T23:17:31.203Z,22.27
2023-02-22T23:21:38.350Z,21.55
2023-02-22T23:23:41.179Z,22.65
2023-02-22T23:25:43.726Z,22.83
2023-02-22T23:27:46.739Z,22.13
2023-02-22T23:29:49.549Z,23.02
2023-02-22T23:31:54.461Z,23.33
2023-02-22T23:33:58.882Z,24.67
2023-02-22T23:36:01.444Z,22.73
2023-02-22T23:38:06.868Z,22.15
2023-02-22T23:40:16.914Z,24.77
2023-02-22T23:42:19.778Z,24.27
2023-02-22T23:44:22.437Z,24.35
2023-02-22T23:46:26.928Z,26.15
2023-02-22T23:48:31.012Z,22.60
2023-02-22T23:50:36.294Z,23.02
2023-02-22T23:52:38.861Z,23.88
2023-02-22T23:54:43.844Z,24.20
2023-02-22T23:56:56.117Z,25.08
2023-02-22T23:58:58.672Z,25.70
